Time;durP1;ratioP1;P1;durP2;ratioP2;P2;SDS_P1;SDS_P2;PMS_P1;PMS_P2;Temp;Humidity;BMP_temperature;BMP_pressure;BME280_temperature;BME280_humidity;BME280_pressure;Samples;Min_cycle;Max_cycle;Signal;HPM_P1;HPM_P2
2022/04/07 00:02:20;;;;;;;33.70;22.20;;;18.30;94.90;;;;;;5052124;28;20183;-87
2022/04/07 00:04:48;;;;;;;27.93;21.53;;;18.30;94.90;;;;;;5053380;28;20249;-93
2022/04/07 00:07:15;;;;;;;28.27;21.70;;;18.30;94.90;;;;;;5051127;28;20266;-88
2022/04/07 00:09:43;;;;;;;33.47;21.97;;;18.50;95.10;;;;;;5045914;28;20178;-80
2022/04/07 00:12:10;;;;;;;25.93;20.90;;;18.40;94.70;;;;;;5047178;28;20317;-79
2022/04/07 00:14:38;;;;;;;33.67;20.90;;;18.50;94.80;;;;;;5052118;28;20554;-90
2022/04/07 00:17:05;;;;;;;29.87;18.30;;;18.40;94.60;;;;;;5051461;28;20202;-88
2022/04/07 00:19:33;;;;;;;34.57;19.30;;;18.40;94.70;;;;;;5051658;28;20183;-85
2022/04/07 00:22:00;;;;;;;26.77;15.90;;;18.40;94.80;;;;;;5051265;28;20771;-80
2022/04/07 00:24:28;;;;;;;29.53;15.73;;;18.30;94.30;;;;;;5051754;28;20297;-86
2022/04/07 00:26:55;;;;;;;29.00;13.40;;;18.20;94.30;;;;;;5050995;28;20179;-85
2022/04/07 00:29:23;;;;;;;25.13;11.97;;;18.20;94.10;;;;;;5052040;28;20241;-78
2022/04/07 00:31:57;;;;;;;28.43;13.63;;;18.10;93.50;;;;;;5051850;28;20559;-83
2022/04/07 00:34:24;;;;;;;32.33;14.80;;;18.10;93.80;;;;;;5039765;28;20184;-83
2022/04/07 00:36:52;;;;;;;35.10;16.77;;;18.20;93.70;;;;;;5049341;28;20183;-88
2022/04/07 00:39:19;;;;;;;33.47;16.13;;;18.30;93.50;;;;;;5051645;28;20237;-90
2022/04/07 00:41:47;;;;;;;31.57;18.77;;;18.30;93.60;;;;;;5051915;28;20255;-93
2022/04/07 00:44:14;;;;;;;31.60;18.37;;;18.40;93.80;;;;;;5045244;28;20215;-90
2022/04/07 00:46:42;;;;;;;34.63;17.70;;;18.40;93.80;;;;;;5051220;28;20548;-79
2022/04/07 00:49:11;;;;;;;33.53;15.17;;;18.40;93.90;;;;;;5051820;28;20245;-85
2022/04/07 00:51:43;;;;;;;30.93;14.73;;;18.40;93.40;;;;;;5082646;28;20184;-82
2022/04/07 00:54:12;;;;;;;35.30;14.83;;;18.40;93.50;;;;;;5051223;28;20210;-82
2022/04/07 00:56:42;;;;;;;36.50;17.57;;;18.40;93.50;;;;;;5052292;28;20192;-78
2022/04/07 00:59:11;;;;;;;29.00;11.83;;;18.40;93.20;;;;;;5052472;28;20191;-79
2022/04/07 01:01:38;;;;;;;31.63;12.70;;;18.40;93.30;;;;;;5052235;28;20269;-79
2022/04/07 01:04:06;;;;;;;36.37;11.13;;;18.40;92.90;;;;;;5050277;28;20665;-82
2022/04/07 01:06:33;;;;;;;25.40;9.20;;;18.40;92.90;;;;;;5048943;28;20204;-74
2022/04/07 01:09:01;;;;;;;22.70;7.07;;;18.30;92.20;;;;;;5050398;28;20183;-89
2022/04/07 01:11:32;;;;;;;22.83;5.70;;;18.20;91.20;;;;;;5051184;28;20191;-86
2022/04/07 01:14:00;;;;;;;15.10;4.87;;;18.10;90.20;;;;;;5047259;28;20191;-89
2022/04/07 01:16:30;;;;;;;16.70;6.30;;;18.10;91.00;;;;;;5051526;28;20191;-80
2022/04/07 01:18:59;;;;;;;28.13;8.57;;;18.10;91.70;;;;;;5050830;28;20213;-80
2022/04/07 01:21:28;;;;;;;23.40;8.10;;;18.00;92.10;;;;;;5054876;28;20186;-84
2022/04/07 01:24:17;;;;;;;22.90;8.43;;;18.10;92.60;;;;;;5048657;28;20213;-83
2022/04/07 01:26:46;;;;;;;28.23;8.87;;;18.00;92.80;;;;;;5061999;28;20190;-84
2022/04/07 01:29:19;;;;;;;19.43;8.33;;;18.00;92.70;;;;;;5051750;28;20188;-83
2022/04/07 01:31:46;;;;;;;17.40;6.43;;;17.90;91.90;;;;;;5056090;28;20194;-84
2022/04/07 01:34:16;;;;;;;23.27;5.97;;;17.90;91.90;;;;;;5046132;28;20246;-82
2022/04/07 01:36:48;;;;;;;18.03;5.10;;;17.80;91.10;;;;;;5052910;28;20646;-87
2022/04/07 01:39:21;;;;;;;22.23;5.50;;;17.80;90.60;;;;;;5063259;28;20278;-86
2022/04/07 01:41:49;;;;;;;16.40;5.20;;;17.80;91.10;;;;;;5051624;28;20793;-87
2022/04/07 01:44:18;;;;;;;23.20;5.37;;;17.80;91.70;;;;;;5057333;28;20218;-77
2022/04/07 01:46:46;;;;;;;18.83;5.43;;;17.80;91.70;;;;;;5048549;28;20191;-85
2022/04/07 01:49:14;;;;;;;22.47;5.83;;;17.80;91.70;;;;;;5053420;28;20183;-86
2022/04/07 01:51:43;;;;;;;24.90;7.53;;;17.90;91.90;;;;;;5050951;28;20266;-85
2022/04/07 01:54:11;;;;;;;20.40;6.87;;;17.90;91.70;;;;;;5052910;28;20206;-84
2022/04/07 01:56:44;;;;;;;26.07;8.60;;;18.00;92.30;;;;;;5057063;28;20240;-89
2022/04/07 01:59:12;;;;;;;13.47;6.10;;;17.90;92.00;;;;;;5057256;28;20277;-82
2022/04/07 02:01:40;;;;;;;20.90;5.20;;;17.90;91.80;;;;;;5054352;28;20187;-85
2022/04/07 02:04:07;;;;;;;13.23;4.50;;;18.00;91.40;;;;;;5055253;28;20301;-87
2022/04/07 02:06:35;;;;;;;25.17;4.83;;;18.00;91.40;;;;;;5054455;28;20194;-92
2022/04/07 02:09:25;;;;;;;17.77;4.70;;;18.00;91.70;;;;;;5053364;28;20220;-80
2022/04/07 02:12:00;;;;;;;21.67;5.40;;;18.10;92.00;;;;;;5048150;28;20195;-80
2022/04/07 02:14:37;;;;;;;15.53;5.63;;;18.10;92.30;;;;;;5056588;28;20191;-94
2022/04/07 02:17:06;;;;;;;19.40;5.90;;;18.10;92.60;;;;;;5049884;28;20187;-86
2022/04/07 02:19:34;;;;;;;13.17;4.73;;;18.00;92.90;;;;;;5051132;28;20185;-88
2022/04/07 02:22:01;;;;;;;20.43;5.60;;;18.00;92.60;;;;;;5050730;28;20187;-80
2022/04/07 02:24:40;;;;;;;19.57;6.07;;;18.10;92.80;;;;;;5052382;28;20223;-90
2022/04/07 02:27:23;;;;;;;18.63;5.40;;;18.00;92.80;;;;;;5047130;28;20202;-92
2022/04/07 02:29:51;;;;;;;19.07;6.00;;;18.10;92.70;;;;;;5053410;28;20179;-90
2022/04/07 02:32:19;;;;;;;23.53;6.87;;;18.10;92.90;;;;;;5051059;28;20206;-92
2022/04/07 02:34:48;;;;;;;21.73;7.07;;;18.20;92.80;;;;;;5054815;28;20182;-81
2022/04/07 02:37:15;;;;;;;21.10;8.10;;;18.20;92.50;;;;;;5053409;28;20190;-87
2022/04/07 02:39:42;;;;;;;21.00;7.37;;;18.20;92.70;;;;;;5052106;28;20179;-82
2022/04/07 02:42:10;;;;;;;21.77;6.70;;;18.20;92.90;;;;;;5049339;28;20696;-86
2022/04/07 02:44:37;;;;;;;12.73;6.53;;;18.20;92.90;;;;;;5052436;28;20202;-79
2022/04/07 02:47:05;;;;;;;23.37;6.83;;;18.30;93.10;;;;;;5051999;28;20184;-82
2022/04/07 02:49:33;;;;;;;20.60;6.30;;;18.20;93.30;;;;;;5045455;28;20187;-84
2022/04/07 02:52:00;;;;;;;16.33;5.43;;;18.30;93.30;;;;;;5048991;28;20176;-81
2022/04/07 02:54:28;;;;;;;13.17;5.77;;;18.20;92.90;;;;;;5048684;28;20603;-83
2022/04/07 02:56:55;;;;;;;22.30;6.60;;;18.30;92.90;;;;;;5050112;28;20183;-84
2022/04/07 02:59:22;;;;;;;25.43;6.83;;;18.30;92.80;;;;;;5052622;28;20755;-83
2022/04/07 03:01:51;;;;;;;20.57;6.50;;;18.30;93.00;;;;;;5047805;28;20271;-84
2022/04/07 03:04:21;;;;;;;23.30;7.40;;;18.30;92.90;;;;;;5046920;28;20217;-84
2022/04/07 03:06:49;;;;;;;24.27;7.70;;;18.50;92.90;;;;;;5050451;28;20189;-91
2022/04/07 03:09:16;;;;;;;24.40;7.03;;;18.50;93.10;;;;;;5052613;28;20653;-81
2022/04/07 03:11:43;;;;;;;25.97;6.93;;;18.50;93.10;;;;;;5052978;28;20251;-83
2022/04/07 03:14:11;;;;;;;25.13;9.27;;;18.50;93.10;;;;;;5044595;28;20236;-82
2022/04/07 03:16:38;;;;;;;25.67;7.97;;;18.50;92.90;;;;;;5048942;28;20715;-85
2022/04/07 03:19:06;;;;;;;29.57;8.57;;;18.60;93.10;;;;;;5050093;28;20187;-86
2022/04/07 03:21:33;;;;;;;27.20;8.53;;;18.70;92.90;;;;;;5053073;28;20267;-89
2022/04/07 03:24:00;;;;;;;28.47;8.00;;;18.80;92.80;;;;;;5057591;28;20183;-85
2022/04/07 03:26:28;;;;;;;25.97;9.63;;;18.80;92.70;;;;;;5065469;28;20219;-83
2022/04/07 03:28:55;;;;;;;23.37;6.17;;;18.90;92.40;;;;;;5061734;28;20180;-82
2022/04/07 03:31:23;;;;;;;24.30;7.03;;;19.00;91.60;;;;;;5065254;28;20187;-86
2022/04/07 03:33:50;;;;;;;24.57;6.70;;;19.00;92.00;;;;;;5062452;28;20207;-83
2022/04/07 03:36:17;;;;;;;33.90;7.90;;;19.10;92.00;;;;;;5059654;28;20210;-85
2022/04/07 03:38:45;;;;;;;26.10;6.83;;;19.20;92.20;;;;;;5049021;28;20734;-83
2022/04/07 03:41:13;;;;;;;22.00;5.77;;;19.20;92.00;;;;;;5050835;28;20224;-85
2022/04/07 03:43:42;;;;;;;23.47;5.70;;;19.20;91.00;;;;;;5052125;28;20249;-84
2022/04/07 03:46:10;;;;;;;26.83;6.23;;;19.20;91.20;;;;;;5046598;28;20188;-85
2022/04/07 03:48:38;;;;;;;20.77;5.10;;;19.20;91.30;;;;;;5048370;28;20676;-83
2022/04/07 03:51:05;;;;;;;27.10;5.20;;;19.20;90.90;;;;;;5051634;28;20525;-79
2022/04/07 03:53:32;;;;;;;25.70;5.40;;;19.10;90.60;;;;;;5043704;28;20188;-79
2022/04/07 03:56:00;;;;;;;24.23;5.97;;;19.20;91.10;;;;;;5051641;28;20179;-83
2022/04/07 03:58:29;;;;;;;25.50;5.43;;;19.10;91.10;;;;;;5047281;28;20271;-85
2022/04/07 04:00:57;;;;;;;26.60;5.93;;;19.10;91.50;;;;;;5052165;28;20203;-81
2022/04/07 04:03:25;;;;;;;30.13;6.20;;;19.20;91.70;;;;;;5052208;28;20228;-81
2022/04/07 04:05:52;;;;;;;29.43;6.50;;;19.20;91.60;;;;;;5049212;28;20208;-84
2022/04/07 04:08:19;;;;;;;25.27;5.73;;;19.20;91.60;;;;;;5052928;28;20245;-81
2022/04/07 04:10:50;;;;;;;25.30;6.10;;;19.20;92.00;;;;;;5052644;28;20176;-85
2022/04/07 04:13:31;;;;;;;30.73;5.77;;;19.20;92.20;;;;;;5052681;28;20203;-84
2022/04/07 04:16:01;;;;;;;22.40;5.70;;;19.20;92.00;;;;;;5044366;28;20167;-81
2022/04/07 04:18:35;;;;;;;24.93;5.63;;;19.10;92.20;;;;;;5049986;28;20232;-83
2022/04/07 04:21:02;;;;;;;27.37;6.77;;;19.10;92.60;;;;;;5050479;28;20233;-78
2022/04/07 04:23:35;;;;;;;27.80;6.50;;;19.10;92.60;;;;;;5047833;28;20203;-82
2022/04/07 04:26:04;;;;;;;23.40;5.63;;;19.10;92.30;;;;;;5047383;28;20624;-85
2022/04/07 04:28:31;;;;;;;30.67;6.00;;;19.00;92.10;;;;;;5048680;28;20190;-91
2022/04/07 04:31:03;;;;;;;17.17;5.67;;;19.00;92.20;;;;;;5049760;28;20175;-85
2022/04/07 04:33:30;;;;;;;22.77;6.20;;;19.00;92.20;;;;;;5051810;28;20178;-89
2022/04/07 04:35:59;;;;;;;26.03;5.77;;;19.00;92.10;;;;;;5051611;28;20214;-90
2022/04/07 04:38:35;;;;;;;24.37;5.97;;;19.00;91.70;;;;;;5039198;28;20209;-83
2022/04/07 04:41:03;;;;;;;16.40;5.03;;;19.00;91.60;;;;;;5051119;28;20227;-83
2022/04/07 04:43:30;;;;;;;24.07;6.07;;;19.00;91.60;;;;;;5052693;28;20183;-84
2022/04/07 04:45:57;;;;;;;20.90;5.27;;;19.00;91.70;;;;;;5054644;28;20219;-83
2022/04/07 04:48:29;;;;;;;26.67;6.80;;;19.10;92.20;;;;;;5052293;28;20208;-80
2022/04/07 04:50:59;;;;;;;23.37;4.93;;;19.10;91.90;;;;;;5051545;28;20646;-94
2022/04/07 04:53:27;;;;;;;28.50;5.53;;;19.00;91.40;;;;;;5051389;28;20188;-89
2022/04/07 04:55:55;;;;;;;25.77;6.63;;;19.00;91.90;;;;;;5059489;28;20539;-87
2022/04/07 04:58:25;;;;;;;20.17;5.40;;;18.90;92.10;;;;;;5055558;28;20220;-79
2022/04/07 05:01:08;;;;;;;23.40;6.13;;;18.90;92.20;;;;;;5055221;28;20191;-83
2022/04/07 05:03:35;;;;;;;26.90;6.87;;;18.90;92.00;;;;;;5053232;28;20573;-86
2022/04/07 05:06:04;;;;;;;26.17;6.47;;;18.80;92.30;;;;;;5052879;28;20294;-86
2022/04/07 05:08:31;;;;;;;21.13;5.50;;;18.90;92.40;;;;;;5054890;28;20279;-77
2022/04/07 05:10:58;;;;;;;18.97;5.87;;;18.90;91.70;;;;;;5055023;28;20256;-83
2022/04/07 05:13:25;;;;;;;24.00;7.37;;;18.80;91.80;;;;;;5055031;28;20179;-78
2022/04/07 05:15:53;;;;;;;24.00;5.77;;;18.80;92.00;;;;;;5052946;28;20207;-81
2022/04/07 05:18:20;;;;;;;29.67;6.63;;;18.80;92.10;;;;;;5056062;28;20664;-88
2022/04/07 05:20:48;;;;;;;27.70;6.57;;;18.80;92.40;;;;;;5056154;28;20187;-82
2022/04/07 05:23:15;;;;;;;28.90;7.53;;;18.80;92.70;;;;;;5056645;28;20225;-81
2022/04/07 05:25:43;;;;;;;33.93;7.90;;;18.70;92.90;;;;;;5055510;28;20216;-80
2022/04/07 05:28:10;;;;;;;27.20;6.63;;;18.60;92.60;;;;;;5055324;28;20191;-80
2022/04/07 05:30:37;;;;;;;26.00;6.27;;;18.60;92.70;;;;;;5055249;28;20210;-78
2022/04/07 05:33:05;;;;;;;23.67;6.17;;;18.60;92.60;;;;;;5047909;28;20180;-81
2022/04/07 05:35:32;;;;;;;32.87;8.40;;;18.60;92.90;;;;;;5053976;28;20195;-82
2022/04/07 05:38:03;;;;;;;32.63;7.30;;;18.50;93.00;;;;;;5054117;28;20176;-85
2022/04/07 05:40:33;;;;;;;26.20;6.73;;;18.50;93.00;;;;;;5054468;28;20227;-84
2022/04/07 05:43:01;;;;;;;30.03;9.33;;;18.50;93.00;;;;;;5054381;28;20222;-86
2022/04/07 05:45:29;;;;;;;22.60;9.07;;;18.40;92.80;;;;;;5038149;28;20231;-83
2022/04/07 05:47:56;;;;;;;27.47;8.13;;;18.50;92.50;;;;;;5053467;28;20176;-84
2022/04/07 05:50:23;;;;;;;37.57;9.23;;;18.50;92.30;;;;;;5050013;28;20175;-82
2022/04/07 05:52:51;;;;;;;24.53;8.93;;;18.50;92.50;;;;;;5054823;28;20241;-85
2022/04/07 05:55:18;;;;;;;39.00;9.43;;;18.50;92.50;;;;;;5051614;28;20267;-82
2022/04/07 05:57:45;;;;;;;34.23;10.00;;;18.50;92.70;;;;;;5054611;28;20179;-82
2022/04/07 06:00:16;;;;;;;25.17;10.90;;;18.50;93.00;;;;;;5053666;28;20614;-81
2022/04/07 06:02:44;;;;;;;39.23;11.60;;;18.60;93.00;;;;;;5053220;28;20266;-86
2022/04/07 06:05:16;;;;;;;29.00;10.97;;;18.50;93.30;;;;;;5055146;28;20293;-82
2022/04/07 06:07:44;;;;;;;42.37;12.93;;;18.60;93.10;;;;;;5053573;28;20255;-88
2022/04/07 06:10:12;;;;;;;34.23;12.77;;;18.60;93.20;;;;;;5054193;28;20693;-80
2022/04/07 06:12:43;;;;;;;46.03;12.67;;;18.60;93.20;;;;;;5055130;28;20254;-86
2022/04/07 06:15:11;;;;;;;35.47;13.53;;;18.60;93.30;;;;;;5054854;28;20180;-86
2022/04/07 06:17:50;;;;;;;38.10;14.20;;;18.60;93.50;;;;;;5053468;28;20193;-79
2022/04/07 06:20:18;;;;;;;34.57;13.87;;;18.70;93.30;;;;;;5056206;28;20214;-82
2022/04/07 06:22:46;;;;;;;32.90;15.17;;;18.70;93.10;;;;;;5054213;28;20183;-79
2022/04/07 06:25:13;;;;;;;37.40;15.47;;;18.70;93.20;;;;;;5052323;28;20293;-89
2022/04/07 06:27:47;;;;;;;24.70;11.50;;;18.70;92.90;;;;;;5086312;28;20255;-87
2022/04/07 06:30:19;;;;;;;39.20;11.70;;;18.50;92.40;;;;;;5051152;28;20649;-80
2022/04/07 06:32:48;;;;;;;33.03;11.40;;;18.50;92.60;;;;;;5056865;28;20176;-81
2022/04/07 06:35:16;;;;;;;24.00;11.20;;;18.50;92.50;;;;;;5053547;28;20191;-81
2022/04/07 06:37:56;;;;;;;33.93;10.80;;;18.50;92.80;;;;;;5045920;28;20231;-79
2022/04/07 06:40:28;;;;;;;28.60;10.80;;;18.50;92.70;;;;;;5050094;28;20189;-78
2022/04/07 06:42:57;;;;;;;35.97;10.87;;;18.40;92.60;;;;;;5042693;28;20207;-78
2022/04/07 06:45:29;;;;;;;32.03;10.33;;;18.40;92.60;;;;;;5050147;28;20243;-81
2022/04/07 06:47:57;;;;;;;27.70;11.07;;;18.50;92.50;;;;;;5049210;28;20204;-80
2022/04/07 06:50:25;;;;;;;30.83;10.80;;;18.50;92.40;;;;;;5049520;28;20205;-81
2022/04/07 06:52:54;;;;;;;31.10;10.70;;;18.50;92.20;;;;;;5052487;28;20203;-83
2022/04/07 06:55:22;;;;;;;32.07;10.53;;;18.50;92.50;;;;;;5053538;28;20179;-83
2022/04/07 06:57:54;;;;;;;38.43;10.70;;;18.50;92.30;;;;;;5053429;28;20182;-78
2022/04/07 07:00:26;;;;;;;36.73;12.03;;;18.50;92.50;;;;;;5053898;28;20192;-85
2022/04/07 07:02:55;;;;;;;31.97;10.70;;;18.50;92.50;;;;;;5053198;28;20271;-78
2022/04/07 07:05:23;;;;;;;35.13;11.00;;;18.60;92.50;;;;;;5053881;28;20264;-79
2022/04/07 07:07:52;;;;;;;29.27;9.70;;;18.60;92.10;;;;;;5053496;28;20175;-81
2022/04/07 07:10:22;;;;;;;27.40;7.87;;;18.60;91.70;;;;;;5053804;28;20221;-78
2022/04/07 07:12:51;;;;;;;33.03;8.90;;;18.60;91.50;;;;;;5053528;28;20164;-79
2022/04/07 07:15:21;;;;;;;36.43;9.03;;;18.70;91.40;;;;;;5053967;28;20179;-77
2022/04/07 07:17:48;;;;;;;26.33;8.20;;;18.60;91.70;;;;;;5053537;28;20217;-76
2022/04/07 07:20:18;;;;;;;28.87;7.53;;;18.60;91.60;;;;;;5053633;28;20172;-76
2022/04/07 07:22:45;;;;;;;29.53;6.73;;;18.60;91.40;;;;;;5053600;28;20164;-74
2022/04/07 07:25:13;;;;;;;22.47;5.33;;;18.60;90.20;;;;;;5053454;28;20237;-74
2022/04/07 07:27:43;;;;;;;23.33;5.30;;;18.60;89.70;;;;;;5053495;28;20182;-78
2022/04/07 07:30:12;;;;;;;25.70;5.27;;;18.60;90.30;;;;;;5053653;28;20211;-76
2022/04/07 07:32:41;;;;;;;28.87;5.13;;;18.60;89.80;;;;;;5053742;28;20270;-80
2022/04/07 07:35:10;;;;;;;24.67;4.93;;;18.70;89.10;;;;;;5054008;28;20588;-74
2022/04/07 07:37:47;;;;;;;19.10;4.30;;;18.70;89.10;;;;;;5052999;28;20173;-77
2022/04/07 07:40:14;;;;;;;21.23;4.00;;;18.80;88.30;;;;;;5053148;28;20171;-77
2022/04/07 07:42:42;;;;;;;16.87;4.10;;;18.80;88.50;;;;;;5053134;28;20226;-75
2022/04/07 07:45:10;;;;;;;17.27;4.00;;;18.80;87.90;;;;;;5053089;28;20200;-81
2022/04/07 07:47:37;;;;;;;24.20;4.30;;;18.90;86.80;;;;;;5054193;28;20312;-81
2022/04/07 07:50:05;;;;;;;21.43;3.60;;;19.00;86.40;;;;;;5053320;28;20183;-77
2022/04/07 07:52:33;;;;;;;23.93;4.30;;;19.00;86.30;;;;;;5053780;28;20166;-78
2022/04/07 07:55:01;;;;;;;16.43;3.80;;;19.10;86.40;;;;;;5046620;28;20610;-81
2022/04/07 07:57:29;;;;;;;22.43;3.93;;;19.00;86.60;;;;;;5033728;28;20195;-81
2022/04/07 08:00:00;;;;;;;24.87;4.33;;;19.00;86.20;;;;;;5032815;28;20521;-77
2022/04/07 08:02:28;;;;;;;26.03;4.10;;;19.10;85.80;;;;;;5039667;28;20171;-81
2022/04/07 08:04:55;;;;;;;26.17;4.53;;;19.30;85.20;;;;;;5053311;28;20233;-89
2022/04/07 08:07:23;;;;;;;21.83;3.57;;;19.30;85.70;;;;;;5053430;28;20657;-84
2022/04/07 08:09:50;;;;;;;22.07;3.80;;;19.30;85.70;;;;;;5053659;28;20171;-90
2022/04/07 08:12:18;;;;;;;27.10;4.20;;;19.30;85.90;;;;;;5053504;28;20169;-77
2022/04/07 08:14:45;;;;;;;26.40;4.77;;;19.30;85.60;;;;;;5053134;28;20529;-85
2022/04/07 08:17:14;;;;;;;26.27;3.43;;;19.40;84.60;;;;;;5052958;28;20183;-81
2022/04/07 08:19:41;;;;;;;22.97;3.63;;;19.50;84.50;;;;;;5053305;28;20708;-80
2022/04/07 08:22:08;;;;;;;26.17;4.43;;;19.50;84.70;;;;;;5085392;28;20525;-78
2022/04/07 08:24:36;;;;;;;20.73;4.13;;;19.60;84.70;;;;;;5052945;28;20291;-86
2022/04/07 08:27:06;;;;;;;21.13;4.47;;;19.50;84.20;;;;;;5053259;28;20191;-86
2022/04/07 08:29:35;;;;;;;20.87;4.40;;;19.60;84.70;;;;;;5052552;28;20180;-84
2022/04/07 08:32:02;;;;;;;22.40;4.37;;;19.50;85.10;;;;;;5056731;28;20176;-80
2022/04/07 08:34:30;;;;;;;22.17;4.07;;;19.50;84.60;;;;;;5089191;28;20201;-84
2022/04/07 08:36:58;;;;;;;24.60;3.90;;;19.60;83.30;;;;;;5056715;28;20179;-79
2022/04/07 08:39:25;;;;;;;26.73;4.90;;;19.70;83.20;;;;;;5056757;28;20653;-75
2022/04/07 08:41:54;;;;;;;16.50;3.73;;;19.70;83.60;;;;;;5056009;28;20227;-80
2022/04/07 08:44:23;;;;;;;22.63;4.43;;;19.70;84.20;;;;;;5056549;28;20210;-77
2022/04/07 08:46:56;;;;;;;16.27;3.47;;;19.70;83.80;;;;;;5056922;28;20185;-84
2022/04/07 08:49:25;;;;;;;17.03;3.37;;;19.70;82.90;;;;;;5057389;28;20176;-78
2022/04/07 08:51:54;;;;;;;18.40;3.37;;;19.70;82.00;;;;;;5056201;28;20610;-77
2022/04/07 08:54:21;;;;;;;19.80;3.43;;;19.80;82.50;;;;;;5056564;28;20211;-78
2022/04/07 08:56:50;;;;;;;20.00;3.90;;;19.70;81.90;;;;;;5056477;28;20175;-76
2022/04/07 08:59:17;;;;;;;20.43;3.50;;;19.70;82.50;;;;;;5088549;28;20538;-83
2022/04/07 09:01:45;;;;;;;22.77;4.73;;;19.70;83.00;;;;;;5055540;28;20657;-82
2022/04/07 09:04:13;;;;;;;19.63;4.20;;;19.80;83.40;;;;;;5056437;28;20219;-81
2022/04/07 09:06:42;;;;;;;17.23;3.40;;;19.70;83.80;;;;;;5055948;28;20179;-78
2022/04/07 09:09:11;;;;;;;25.90;4.17;;;19.70;84.30;;;;;;5056621;28;20191;-80
2022/04/07 09:11:39;;;;;;;30.20;4.23;;;19.60;84.40;;;;;;5055105;28;20184;-76
2022/04/07 09:14:09;;;;;;;22.70;4.33;;;19.70;84.30;;;;;;5055871;28;20175;-77
2022/04/07 09:16:38;;;;;;;24.23;3.90;;;19.80;84.10;;;;;;5056118;28;20172;-78
2022/04/07 09:19:06;;;;;;;21.87;3.53;;;19.80;84.20;;;;;;5055993;28;20272;-79
2022/04/07 09:21:35;;;;;;;24.77;4.57;;;19.70;84.20;;;;;;5056301;28;20218;-81
2022/04/07 09:24:05;;;;;;;20.43;4.50;;;19.80;83.90;;;;;;5055662;28;20645;-78
2022/04/07 09:26:36;;;;;;;23.80;3.73;;;19.80;84.20;;;;;;5056012;28;20180;-80
2022/04/07 09:29:10;;;;;;;18.30;3.43;;;19.70;83.40;;;;;;5055746;28;20237;-82
2022/04/07 09:31:40;;;;;;;18.70;4.17;;;19.80;83.20;;;;;;5054592;28;20213;-77
2022/04/07 09:34:07;;;;;;;21.83;3.50;;;19.80;83.30;;;;;;5050217;28;20180;-77
2022/04/07 09:36:35;;;;;;;21.83;3.97;;;19.80;82.50;;;;;;5054827;28;20547;-74
2022/04/07 09:39:02;;;;;;;26.37;4.30;;;19.90;82.50;;;;;;5054659;28;20180;-76
2022/04/07 09:41:31;;;;;;;23.57;3.97;;;20.00;81.70;;;;;;5054093;28;20657;-78
2022/04/07 09:44:01;;;;;;;23.07;4.10;;;19.90;82.00;;;;;;5054132;28;20232;-79
2022/04/07 09:46:35;;;;;;;15.47;3.30;;;19.90;82.40;;;;;;5047859;28;20195;-76
2022/04/07 09:49:10;;;;;;;23.00;4.17;;;19.80;82.30;;;;;;5053932;28;20188;-83
2022/04/07 09:51:47;;;;;;;24.03;3.77;;;19.80;82.70;;;;;;5052022;28;20638;-79
2022/04/07 09:54:16;;;;;;;22.47;4.07;;;19.80;82.50;;;;;;5054993;28;20191;-81
2022/04/07 09:56:47;;;;;;;21.43;4.13;;;19.80;82.50;;;;;;5047261;28;20230;-78
2022/04/07 09:59:19;;;;;;;15.93;3.73;;;19.80;82.70;;;;;;5054787;28;20211;-79
2022/04/07 10:01:49;;;;;;;18.87;3.70;;;19.80;82.40;;;;;;5052968;28;20196;-83
2022/04/07 10:04:20;;;;;;;28.43;3.90;;;19.90;81.20;;;;;;5054199;28;20666;-76
2022/04/07 10:06:50;;;;;;;15.30;3.70;;;19.90;80.80;;;;;;5054908;28;20188;-71
2022/04/07 10:09:19;;;;;;;21.67;4.20;;;19.90;79.60;;;;;;5054967;28;20626;-80
2022/04/07 10:11:47;;;;;;;19.13;3.67;;;20.00;78.90;;;;;;5054143;28;20172;-75
2022/04/07 10:14:21;;;;;;;20.47;3.50;;;20.00;77.90;;;;;;5054251;28;20581;-80
2022/04/07 10:16:49;;;;;;;13.77;3.03;;;20.10;77.70;;;;;;5053831;28;20566;-81
2022/04/07 10:19:39;;;;;;;18.87;3.37;;;20.10;78.40;;;;;;5054545;28;20309;-77
2022/04/07 10:22:21;;;;;;;18.97;3.23;;;20.00;78.20;;;;;;5052842;28;20548;-78
2022/04/07 10:25:00;;;;;;;14.13;3.10;;;20.00;77.50;;;;;;5049843;28;20682;-77
2022/04/07 10:27:29;;;;;;;20.60;3.43;;;20.10;77.60;;;;;;5053569;28;20183;-76
2022/04/07 10:30:06;;;;;;;20.80;3.23;;;20.10;78.10;;;;;;5050937;28;20203;-78
2022/04/07 10:32:52;;;;;;;21.50;3.53;;;20.00;77.80;;;;;;5053160;28;20184;-75
2022/04/07 10:35:34;;;;;;;18.67;3.40;;;20.00;78.10;;;;;;5054464;28;20665;-78
2022/04/07 10:38:09;;;;;;;22.77;3.27;;;20.00;77.60;;;;;;5049121;28;20204;-76
2022/04/07 10:40:54;;;;;;;24.13;3.97;;;20.10;77.50;;;;;;5053683;28;20184;-79
2022/04/07 10:43:25;;;;;;;19.13;3.27;;;20.00;77.90;;;;;;5052861;28;20279;-73
2022/04/07 10:46:05;;;;;;;16.07;3.07;;;20.10;77.90;;;;;;5053511;28;20243;-77
2022/04/07 10:48:36;;;;;;;26.67;3.93;;;20.10;78.20;;;;;;5052288;28;20175;-74
2022/04/07 10:51:08;;;;;;;19.57;3.53;;;20.10;78.40;;;;;;5038463;28;20183;-79
2022/04/07 10:53:54;;;;;;;13.53;3.20;;;20.00;78.50;;;;;;5050637;28;20183;-78
2022/04/07 10:56:35;;;;;;;22.00;4.53;;;20.10;78.10;;;;;;5053911;28;20179;-77
2022/04/07 10:59:13;;;;;;;18.90;3.60;;;20.10;77.60;;;;;;5053640;28;20225;-76
2022/04/07 11:01:40;;;;;;;22.93;3.43;;;20.10;78.40;;;;;;5037912;28;20209;-72
2022/04/07 11:07:08;;;;;;;11.80;3.60;;;20.20;77.30;;;;;;5053436;28;20195;-77
2022/04/07 11:10:02;;;;;;;20.27;3.47;;;20.20;77.40;;;;;;5053651;28;20262;-77
2022/04/07 11:12:34;;;;;;;18.47;3.27;;;20.10;77.40;;;;;;5053172;28;20703;-78
2022/04/07 11:15:04;;;;;;;18.80;3.17;;;20.10;77.10;;;;;;5053456;28;20172;-77
2022/04/07 11:17:33;;;;;;;20.73;3.33;;;20.10;76.70;;;;;;5053403;28;20172;-79
2022/04/07 11:20:15;;;;;;;12.37;2.93;;;20.20;76.30;;;;;;5052710;28;20191;-74
2022/04/07 11:22:58;;;;;;;22.73;3.87;;;20.30;75.50;;;;;;5053055;28;20592;-84
2022/04/07 11:25:30;;;;;;;13.93;2.93;;;20.20;76.00;;;;;;5053585;28;20628;-74
2022/04/07 11:28:12;;;;;;;18.77;3.50;;;20.20;76.50;;;;;;5053601;28;20168;-72
2022/04/07 11:30:54;;;;;;;20.70;3.63;;;20.30;76.30;;;;;;5082351;28;20186;-74
2022/04/07 11:33:27;;;;;;;18.17;3.10;;;20.20;76.60;;;;;;5052819;28;20179;-72
2022/04/07 11:36:00;;;;;;;17.33;3.67;;;20.10;77.00;;;;;;5049159;28;20192;-77
2022/04/07 11:38:37;;;;;;;27.27;4.20;;;20.10;77.10;;;;;;5051854;28;20637;-75
2022/04/07 11:41:15;;;;;;;20.90;3.87;;;20.10;76.70;;;;;;5048402;28;20219;-77
2022/04/07 11:43:47;;;;;;;19.27;3.47;;;20.10;77.00;;;;;;5049441;28;20223;-75
2022/04/07 11:46:16;;;;;;;21.20;3.30;;;20.10;77.40;;;;;;5052574;28;20211;-74
2022/04/07 11:48:43;;;;;;;12.43;3.13;;;20.00;77.80;;;;;;5053045;28;20186;-76
2022/04/07 11:51:14;;;;;;;20.63;3.17;;;20.00;78.00;;;;;;5052840;28;20182;-75
2022/04/07 11:53:45;;;;;;;19.43;3.70;;;20.00;77.70;;;;;;5052406;28;20248;-75
2022/04/07 11:56:16;;;;;;;17.10;3.30;;;20.00;78.10;;;;;;5051544;28;20180;-74
2022/04/07 11:58:49;;;;;;;27.20;3.87;;;20.10;77.80;;;;;;5042439;28;20184;-75
2022/04/07 12:01:16;;;;;;;16.70;3.03;;;20.10;78.10;;;;;;5052186;28;20176;-72
2022/04/07 12:03:44;;;;;;;13.63;3.20;;;20.10;77.90;;;;;;5051372;28;20278;-76
2022/04/07 12:06:12;;;;;;;18.07;3.57;;;20.20;77.40;;;;;;5050911;28;20262;-74
2022/04/07 12:08:40;;;;;;;16.03;3.33;;;20.20;77.40;;;;;;5052551;28;20179;-74
2022/04/07 12:11:07;;;;;;;18.60;3.77;;;20.20;77.70;;;;;;5052678;28;20168;-74
2022/04/07 12:13:35;;;;;;;19.13;3.97;;;20.20;77.80;;;;;;5050705;28;20180;-77
2022/04/07 12:16:03;;;;;;;19.63;3.20;;;20.20;77.30;;;;;;5039379;28;20242;-76
2022/04/07 12:18:31;;;;;;;21.60;3.53;;;20.20;77.30;;;;;;5048100;28;20262;-76
2022/04/07 12:21:03;;;;;;;14.27;2.53;;;20.10;76.90;;;;;;5052687;28;20227;-72
2022/04/07 12:23:30;;;;;;;19.10;3.47;;;20.20;76.50;;;;;;5045547;28;20171;-73
2022/04/07 12:26:02;;;;;;;14.77;2.50;;;20.20;76.00;;;;;;5051938;28;20302;-73
2022/04/07 12:28:40;;;;;;;18.97;3.30;;;20.30;75.60;;;;;;5051228;28;20172;-74
2022/04/07 12:31:12;;;;;;;18.73;3.43;;;20.30;76.00;;;;;;5036131;28;20183;-74
2022/04/07 12:33:48;;;;;;;16.20;3.50;;;20.20;76.60;;;;;;5052561;28;20175;-74
2022/04/07 12:36:30;;;;;;;13.83;3.07;;;20.20;77.20;;;;;;5052746;28;20175;-74
2022/04/07 12:39:03;;;;;;;18.30;3.87;;;20.10;77.60;;;;;;5052048;28;20171;-77
2022/04/07 12:41:44;;;;;;;21.37;3.87;;;20.00;78.40;;;;;;5050367;28;20713;-73
2022/04/07 12:44:21;;;;;;;22.20;3.67;;;20.10;78.10;;;;;;5051718;28;20183;-77
2022/04/07 12:46:54;;;;;;;14.10;3.27;;;20.00;78.70;;;;;;5052187;28;20180;-72
2022/04/07 12:49:33;;;;;;;21.17;3.13;;;20.00;77.70;;;;;;5051936;28;20184;-75
2022/04/07 12:52:11;;;;;;;15.57;3.03;;;20.00;77.10;;;;;;5051128;28;20658;-77
2022/04/07 12:54:59;;;;;;;12.70;2.33;;;20.00;76.80;;;;;;5051225;28;20535;-78